TimeEST,TemperatureF,Dew PointF,Humidity,Sea Level PressureIn,VisibilityMPH,Wind Direction,Wind SpeedMPH,Gust SpeedMPH,PrecipitationIn,Events,Conditions,WindDirDegrees,DateUTC
12:52 AM,30.0,18.0,61,30.18,10.0,WNW,8.1,-,N/A,,Clear,300,2012-12-12 05:52:00
1:52 AM,28.9,18.0,64,30.20,10.0,NW,5.8,-,N/A,,Clear,310,2012-12-12 06:52:00
2:52 AM,27.0,18.0,69,30.22,10.0,Calm,Calm,-,N/A,,Clear,0,2012-12-12 07:52:00
3:52 AM,23.0,18.0,81,30.24,10.0,Calm,Calm,-,N/A,,Clear,0,2012-12-12 08:52:00
4:52 AM,24.1,19.9,84,30.27,10.0,Calm,Calm,-,N/A,,Clear,0,2012-12-12 09:52:00
5:52 AM,21.9,19.0,89,30.30,10.0,Calm,Calm,-,N/A,,Clear,0,2012-12-12 10:52:00
6:52 AM,21.9,19.9,92,30.32,10.0,Calm,Calm,-,N/A,,Clear,0,2012-12-12 11:52:00
7:52 AM,19.9,18.0,92,30.34,10.0,Calm,Calm,-,N/A,,Clear,0,2012-12-12 12:52:00
8:52 AM,24.1,21.0,88,30.36,8.0,Calm,Calm,-,N/A,,Clear,0,2012-12-12 13:52:00
9:52 AM,28.0,21.9,78,30.37,10.0,Calm,Calm,-,N/A,,Clear,0,2012-12-12 14:52:00
10:52 AM,32.0,21.0,64,30.36,10.0,Calm,Calm,-,N/A,,Clear,0,2012-12-12 15:52:00
11:52 AM,32.0,21.0,64,30.34,10.0,South,3.5,-,N/A,,Clear,170,2012-12-12 16:52:00
12:52 PM,36.0,21.0,55,30.33,10.0,Variable,3.5,-,N/A,,Clear,0,2012-12-12 17:52:00
1:52 PM,37.0,21.9,54,30.33,10.0,South,4.6,-,N/A,,Clear,180,2012-12-12 18:52:00
2:52 PM,37.0,21.9,54,30.34,10.0,South,9.2,-,N/A,,Clear,180,2012-12-12 19:52:00
3:52 PM,36.0,23.0,59,30.37,10.0,South,4.6,-,N/A,,Clear,170,2012-12-12 20:52:00
4:52 PM,28.9,23.0,78,30.39,10.0,East,5.8,-,N/A,,Clear,100,2012-12-12 21:52:00
5:52 PM,27.0,21.9,81,30.40,10.0,WNW,4.6,-,N/A,,Clear,290,2012-12-12 22:52:00
6:52 PM,27.0,23.0,85,30.41,10.0,Calm,Calm,-,N/A,,Clear,0,2012-12-12 23:52:00
7:52 PM,24.1,21.9,91,30.43,10.0,Calm,Calm,-,N/A,,Clear,0,2012-12-13 00:52:00
8:52 PM,24.1,21.0,88,30.41,8.0,Calm,Calm,-,N/A,,Clear,0,2012-12-13 01:52:00
9:52 PM,23.0,21.0,92,30.43,7.0,Calm,Calm,-,N/A,,Clear,0,2012-12-13 02:52:00
10:52 PM,21.0,19.0,92,30.43,5.0,Calm,Calm,-,N/A,,Clear,0,2012-12-13 03:52:00
11:45 PM,21.2,19.4,93,30.42,1.8,Calm,Calm,-,N/A,,Clear,0,2012-12-13 04:45:00
11:52 PM,19.9,18.0,92,30.45,1.5,Calm,Calm,-,N/A,,Clear,0,2012-12-13 04:52:00
11:56 PM,19.4,17.6,93,30.42,4.0,Calm,Calm,-,N/A,,Clear,0,2012-12-13 04:56:00